createdAt,value
2019-05-16T00:01:09.387Z,30.64
2019-05-16T00:03:38.848Z,30.61
2019-05-16T00:06:08.558Z,30.71
2019-05-16T00:08:38.952Z,30.69
2019-05-16T00:11:09.261Z,30.72
2019-05-16T00:13:38.539Z,30.65
2019-05-16T00:16:08.019Z,30.67
2019-05-16T00:18:38.842Z,30.72
2019-05-16T00:21:08.826Z,30.73
2019-05-16T00:23:38.174Z,30.73
2019-05-16T00:26:07.881Z,30.72
2019-05-16T00:28:38.012Z,30.71
2019-05-16T00:31:08.607Z,30.73
2019-05-16T00:33:38.147Z,30.74
2019-05-16T00:36:09.160Z,30.73
2019-05-16T00:38:38.338Z,30.77
2019-05-16T00:41:08.506Z,30.74
2019-05-16T00:43:38.017Z,30.83
2019-05-16T00:46:08.406Z,30.83
2019-05-16T00:48:38.168Z,30.78
2019-05-16T00:51:07.906Z,30.78
2019-05-16T00:53:38.270Z,30.81
2019-05-16T00:56:08.067Z,30.86
2019-05-16T00:58:38.249Z,30.86
2019-05-16T01:01:08.802Z,30.79
2019-05-16T01:03:38.029Z,30.83
2019-05-16T01:06:18.465Z,30.82
2019-05-16T01:08:38.639Z,30.82
2019-05-16T01:11:08.086Z,30.87
2019-05-16T01:13:38.044Z,30.82
2019-05-16T01:16:08.608Z,30.87
2019-05-16T01:18:39.072Z,30.92
2019-05-16T01:21:08.346Z,30.87
2019-05-16T01:23:38.823Z,30.87
2019-05-16T01:26:08.148Z,30.95
2019-05-16T01:28:38.231Z,30.92
2019-05-16T01:31:08.573Z,30.91
2019-05-16T01:33:38.546Z,30.84
2019-05-16T01:36:08.939Z,30.84
2019-05-16T01:38:39.028Z,30.95
2019-05-16T01:41:08.839Z,30.67
2019-05-16T01:43:38.234Z,30.67
2019-05-16T01:46:08.487Z,30.95
2019-05-16T01:48:38.231Z,31.04
2019-05-16T01:51:07.979Z,31.04
2019-05-16T01:53:39.302Z,30.99
2019-05-16T01:56:09.180Z,31.06
2019-05-16T01:58:38.449Z,31.04
2019-05-16T02:01:13.131Z,31.02
2019-05-16T02:03:38.858Z,31.02
2019-05-16T02:06:08.863Z,31.04
2019-05-16T02:08:38.207Z,31.06
2019-05-16T02:11:08.598Z,31.10
2019-05-16T02:13:39.116Z,30.99
2019-05-16T02:16:08.608Z,30.99
2019-05-16T02:18:38.248Z,31.04
2019-05-16T02:21:07.974Z,31.06
2019-05-16T02:23:38.255Z,31.11
2019-05-16T02:26:08.003Z,31.09
2019-05-16T02:28:40.762Z,31.08
2019-05-16T02:31:12.016Z,31.12
2019-05-16T02:33:40.555Z,31.11
2019-05-16T02:36:10.955Z,31.14
2019-05-16T02:38:42.244Z,31.15
2019-05-16T02:41:12.491Z,31.14
2019-05-16T02:43:42.202Z,31.19
2019-05-16T02:46:12.069Z,31.14
2019-05-16T02:48:41.642Z,31.14
2019-05-16T02:51:11.878Z,31.13
2019-05-16T02:53:41.756Z,31.12
2019-05-16T02:56:12.308Z,31.15
2019-05-16T02:58:44.999Z,31.14
2019-05-16T03:01:13.292Z,31.20
2019-05-16T03:03:44.022Z,31.18
2019-05-16T03:06:14.775Z,31.17
2019-05-16T03:08:44.270Z,31.17
2019-05-16T03:11:13.817Z,31.22
2019-05-16T03:13:43.069Z,31.19
2019-05-16T03:16:12.340Z,31.21
2019-05-16T03:18:41.694Z,31.20
2019-05-16T03:21:12.290Z,31.20
2019-05-16T03:23:42.185Z,31.20
2019-05-16T03:26:11.925Z,31.23
2019-05-16T03:28:42.401Z,31.26
2019-05-16T03:31:14.759Z,31.26
2019-05-16T03:33:52.048Z,31.27
2019-05-16T03:36:15.904Z,31.24
2019-05-16T03:38:45.763Z,31.25
2019-05-16T03:41:15.091Z,31.27
2019-05-16T03:43:44.369Z,31.28
2019-05-16T03:46:13.630Z,31.27
2019-05-16T03:48:42.891Z,31.27
2019-05-16T03:51:12.155Z,31.27
2019-05-16T03:53:41.409Z,31.29
2019-05-16T03:56:11.285Z,31.34
2019-05-16T03:58:41.654Z,31.28
2019-05-16T04:01:11.654Z,31.26
2019-05-16T04:03:41.670Z,31.27
2019-05-16T04:06:12.133Z,31.34
2019-05-16T04:08:41.635Z,31.37
2019-05-16T04:11:11.809Z,31.32
2019-05-16T04:13:41.611Z,31.30
2019-05-16T04:16:11.774Z,31.29
2019-05-16T04:18:42.109Z,31.29
2019-05-16T04:21:12.599Z,31.26
2019-05-16T04:23:42.290Z,31.29
2019-05-16T04:26:11.773Z,31.32
2019-05-16T04:28:41.543Z,31.33
2019-05-16T04:31:11.995Z,31.27
2019-05-16T04:33:41.848Z,31.35
2019-05-16T04:36:11.216Z,31.34
2019-05-16T04:38:46.292Z,31.34
2019-05-16T04:41:11.812Z,31.36
2019-05-16T04:43:41.717Z,31.40
2019-05-16T04:46:12.230Z,31.40
2019-05-16T04:48:41.962Z,31.38
2019-05-16T04:51:11.349Z,31.37
2019-05-16T04:53:42.510Z,31.38
2019-05-16T04:56:11.871Z,31.37
2019-05-16T04:58:41.223Z,31.42
2019-05-16T05:01:11.086Z,31.42
2019-05-16T05:03:51.219Z,31.43
2019-05-16T05:06:11.768Z,31.45
2019-05-16T05:08:56.867Z,31.46
2019-05-16T05:11:12.687Z,31.50
2019-05-16T05:13:41.949Z,31.50
2019-05-16T05:16:11.215Z,31.48
2019-05-16T05:18:41.028Z,31.48
2019-05-16T05:21:11.704Z,31.51
2019-05-16T05:23:41.099Z,31.58
2019-05-16T05:26:10.904Z,31.50
2019-05-16T05:28:40.413Z,31.52
2019-05-16T05:31:10.865Z,31.56
2019-05-16T05:33:41.679Z,31.55
2019-05-16T05:36:12.425Z,31.55
2019-05-16T05:38:41.934Z,31.56
2019-05-16T05:41:11.193Z,31.53
2019-05-16T05:43:40.476Z,31.49
2019-05-16T05:46:11.170Z,31.58
2019-05-16T05:48:41.129Z,31.70
2019-05-16T05:51:11.598Z,31.62
2019-05-16T05:53:40.852Z,31.54
2019-05-16T05:56:11.347Z,31.63
2019-05-16T05:58:40.895Z,31.64
2019-05-16T06:01:11.081Z,31.72
2019-05-16T06:03:40.690Z,31.75
2019-05-16T06:06:10.587Z,31.78
2019-05-16T19:45:26.466Z,35.86
2019-05-16T19:51:57.008Z,34.45
2019-05-16T19:54:27.042Z,31.79
2019-05-16T19:56:56.747Z,30.26
2019-05-16T19:59:27.106Z,29.56
2019-05-16T20:01:56.959Z,29.27
2019-05-16T20:04:27.408Z,29.07
